KPNO PMTC Data


Display last 80 lines of pmtc.log
This page should refresh every five minutes.
 
All temperatures in Centigrade

                                   Probe    Dew                                                                                                                                                                                                    Set  Flow 
    Date   Time             Humid    Amb   Point    NIB   EIB   SIB   WIB   NOB   EOB   SOB   WOB   NIT   EIT   SIT   WIT   NOT   EOT   SOT   WOT   STS   MHS   MHW   COS   COW   CIB   CIM   CIT   DBS   TSB   TSM   TST   HXI   HXO   HXA   HXD Point Rate   NTT   ETT   WTT   STT   NTB   ETB   WTB   STB   TRS   TRW   CSI   CSO   PCI   PCO   CCI   CCO

Sun Nov 19 14:09:52 2017 H 34.5 P 14.000 D -2.5 9.8 9.7 9.7 9.9 9.8 9.8 9.8 9.9 10.1 10.0 10.1 10.2 10.3 10.2 10.1 10.1 12.8 10.0 11.2 13.3 13.4 9.2 9.2 12.0 10.1 14.5 14.4 14.0 1.9 4.2 13.9 10.4 10 14.1 13.4 13.0 13.5 13.7 13.1 12.8 13.0 13.2 14.1 13.9 10.5 13.0 10.6 10.6 10.8 12.2 
Sun Nov 19 14:14:52 2017 H 34.4 P 14.000 D -2.5 9.8 9.8 9.9 9.9 9.8 9.8 9.9 9.8 10.5 10.4 10.4 10.5 10.6 10.5 10.4 10.4 12.8 11.2 11.0 11.8 12.5 9.2 9.5 12.2 11.3 14.2 14.3 14.0 1.9 3.7 13.8 10.3 10 17.5 13.4 13.0 13.6 13.6 13.3 12.7 13.1 13.2 14.3 14.0 10.7 13.0 10.8 10.8 10.9 12.3 
Sun Nov 19 14:19:52 2017 H 34.6 P 13.817 D -2.5 9.8 9.9 9.8 9.9 9.8 9.7 9.9 9.9 10.7 10.5 10.5 10.5 10.8 10.6 10.5 10.6 12.9 11.3 11.1 11.7 12.9 9.4 9.5 12.1 11.5 14.2 14.3 14.3 2.0 3.8 14.1 10.3 10 19.2 13.5 13.1 13.7 13.6 13.2 12.9 13.1 13.2 14.1 14.1 10.6 12.9 10.7 10.8 10.9 12.2 
Sun Nov 19 14:24:52 2017 H 34.7 P 13.850 D -2.6 9.8 9.8 9.8 10.0 9.8 9.7 9.8 9.9 10.7 10.5 10.5 10.5 10.7 10.6 10.4 10.5 12.9 11.1 11.0 11.8 12.9 9.2 9.3 12.1 11.4 14.3 14.5 14.3 0.7 2.6 14.0 9.8 10 20.1 13.6 13.1 13.6 13.7 13.2 12.7 13.1 13.2 14.3 14.2 10.7 12.9 10.7 10.5 10.9 12.3 
Sun Nov 19 14:29:52 2017 H 34.7 P 13.750 D -2.6 9.9 9.9 9.9 9.9 9.9 9.8 9.9 10.0 10.7 10.6 10.6 10.7 10.8 10.7 10.5 10.6 13.0 11.0 10.8 12.0 12.8 9.1 9.2 12.1 11.4 14.2 14.5 14.3 0.9 2.5 14.0 9.5 10 21.8 13.6 13.1 13.7 13.8 13.3 12.8 13.1 13.2 14.3 14.2 10.8 12.8 10.8 10.6 11.0 12.5 
Sun Nov 19 14:34:52 2017 H 34.7 P 13.783 D -2.6 9.9 9.9 9.8 9.9 9.8 9.8 9.9 9.9 10.7 10.6 10.6 10.6 10.9 10.7 10.6 10.6 13.0 11.2 11.1 12.1 12.8 9.2 9.5 12.2 11.7 14.2 14.5 14.4 1.7 3.2 14.0 9.8 10 23.8 13.6 13.2 13.8 13.8 13.2 12.9 13.1 13.2 14.1 14.2 10.9 12.9 10.7 10.9 10.9 12.4 
Sun Nov 19 14:39:52 2017 H 34.6 P 13.700 D -2.7 9.9 9.9 9.8 9.9 9.9 9.9 9.9 9.9 10.9 10.6 10.7 10.7 10.8 10.6 10.6 10.7 13.1 11.3 11.0 11.7 12.7 9.3 9.5 12.2 11.5 14.4 14.5 14.3 2.1 3.5 14.1 9.9 10 25.8 13.8 13.2 13.8 13.9 13.3 12.9 13.1 13.3 14.1 14.2 10.7 12.8 10.7 10.7 10.8 12.2 
Sun Nov 19 14:44:52 2017 H 34.5 P 13.800 D -2.7 10.0 9.9 10.0 10.0 9.9 9.8 9.9 10.0 10.9 10.7 10.7 10.7 10.9 10.7 10.6 10.8 13.1 11.3 11.1 12.0 13.2 9.5 9.7 12.2 11.6 14.4 14.6 14.3 2.1 3.6 14.1 9.9 10 25.5 13.8 13.2 14.0 13.9 13.4 12.9 13.2 13.3 14.1 14.3 10.7 12.8 10.7 10.6 10.9 12.4 
Sun Nov 19 14:49:52 2017 H 34.6 P 13.783 D -2.7 9.9 10.0 9.9 10.0 9.9 9.9 10.0 10.0 11.0 10.7 10.8 10.6 11.0 10.7 10.6 10.6 13.2 11.3 11.0 12.0 12.8 9.4 9.4 12.1 11.8 14.3 14.4 14.4 1.8 3.4 14.1 9.9 10 25.8 13.9 13.3 14.0 14.0 13.5 12.9 13.2 13.2 14.4 14.3 10.7 12.9 10.7 10.6 10.9 12.4 
Sun Nov 19 14:54:52 2017 H 34.5 P 13.800 D -2.7 9.9 9.9 9.9 10.0 9.9 9.8 9.9 10.0 10.8 10.6 10.7 10.6 10.9 10.8 10.5 10.6 13.2 11.2 11.0 12.0 13.0 9.3 9.6 12.2 11.6 14.5 14.6 14.4 1.9 3.3 14.2 9.8 10 25.8 13.8 13.4 14.0 13.9 13.5 12.9 13.2 13.4 14.3 14.3 10.8 12.9 10.8 10.6 10.9 12.4 
Sun Nov 19 14:59:52 2017 H 34.3 P 13.900 D -2.7 10.0 9.9 10.0 10.1 10.0 9.9 10.0 10.1 11.0 10.8 10.9 10.7 11.0 10.8 10.7 10.7 13.1 11.3 11.0 11.9 12.8 9.5 9.7 12.2 11.6 14.6 14.5 14.3 2.0 3.4 14.2 9.8 10 25.8 13.8 13.2 13.9 13.8 13.2 12.7 13.0 13.2 14.3 14.3 10.7 12.7 10.7 10.5 10.7 12.1 
Sun Nov 19 15:04:52 2017 H 34.4 P 13.800 D -2.7 9.9 9.9 10.1 10.0 9.9 9.9 10.0 10.0 11.1 10.7 10.8 10.7 11.1 10.9 10.7 10.8 13.2 11.3 11.2 12.1 13.0 9.4 9.7 12.2 11.8 14.6 14.6 14.6 2.4 3.5 14.5 10.1 10 25.8 13.9 13.4 14.1 14.0 13.6 13.1 13.1 13.4 14.2 14.5 10.8 12.8 10.8 10.5 10.9 12.5 
Sun Nov 19 15:09:52 2017 H 34.2 P 13.850 D -2.7 10.0 9.9 9.9 10.0 9.9 9.9 9.8 9.9 11.0 10.8 10.9 10.8 11.0 10.9 10.6 10.8 13.3 11.4 11.0 12.3 12.8 9.5 9.7 12.2 11.8 14.7 14.7 14.5 2.2 3.6 14.4 10.0 10 25.5 14.0 13.3 14.1 14.0 13.5 13.0 13.2 13.4 14.2 14.4 10.8 12.8 10.8 10.4 10.8 12.2 
Sun Nov 19 15:14:52 2017 H 34.3 P 13.883 D -2.7 10.0 10.0 10.0 9.9 9.9 9.8 9.9 9.9 11.0 10.7 10.7 10.7 11.0 10.8 10.7 10.8 13.3 11.2 11.0 12.0 12.9 9.4 9.4 12.3 12.1 14.6 14.6 14.6 0.6 1.9 14.3 9.5 10 25.5 14.0 13.4 14.1 13.9 13.6 12.9 13.1 13.3 14.3 14.4 10.8 12.8 10.7 10.6 10.8 12.3 
Sun Nov 19 15:19:52 2017 H 34.2 P 13.900 D -2.8 10.0 9.9 10.1 10.0 10.0 9.9 9.9 10.0 11.1 10.8 10.8 10.8 11.0 10.9 10.8 10.8 13.2 11.0 11.0 12.0 13.0 9.3 9.5 12.2 11.9 14.5 14.6 14.5 1.5 2.9 14.3 9.7 10 25.5 14.0 13.5 14.2 14.1 13.7 13.1 13.3 13.4 14.3 14.5 10.9 12.9 10.8 10.5 10.7 12.4 
Sun Nov 19 15:24:52 2017 H 34.1 P 13.850 D -2.8 10.0 10.0 10.0 10.0 9.9 9.9 9.9 10.0 11.1 10.8 10.8 10.8 11.0 11.0 10.7 10.7 13.3 11.3 11.1 12.2 13.0 9.5 9.6 12.3 11.7 14.6 14.6 14.6 2.0 3.3 14.3 9.8 10 25.8 14.1 13.6 14.1 14.0 13.6 13.1 13.2 13.3 14.3 14.6 10.9 12.7 10.7 10.6 10.9 12.4 
Sun Nov 19 15:29:52 2017 H 34.1 P 13.850 D -2.8 10.1 10.0 10.1 10.1 10.0 9.9 10.0 9.9 11.2 10.8 11.0 10.9 11.1 10.9 10.7 10.8 13.3 11.5 11.1 12.2 13.1 9.5 9.6 12.2 12.1 14.5 14.7 14.6 2.0 3.5 14.3 9.9 10 25.8 14.1 13.6 14.2 14.1 13.6 13.2 13.2 13.3 14.3 14.5 10.9 12.7 10.7 10.5 10.8 12.5 
Sun Nov 19 15:34:52 2017 H 34.0 P 13.900 D -2.8 10.0 10.0 10.0 9.9 9.9 9.9 9.9 10.0 11.1 10.8 10.8 10.8 11.1 10.9 10.8 10.9 13.4 11.4 11.1 12.3 13.1 9.6 9.8 12.4 11.8 14.6 14.7 14.7 2.1 3.7 14.4 10.0 10 25.8 14.0 13.6 14.2 14.0 13.6 13.2 13.2 13.4 14.4 14.6 10.9 12.9 10.8 10.8 11.0 12.4 
Sun Nov 19 15:39:52 2017 H 34.0 P 13.850 D -2.8 10.0 10.0 10.0 9.9 10.0 9.8 9.8 10.0 11.2 10.9 10.9 10.8 11.2 11.0 10.9 10.8 13.4 11.7 11.1 12.2 12.9 9.5 9.6 12.4 11.8 14.6 14.7 14.5 2.1 3.3 14.3 10.0 10 25.5 14.1 13.5 14.2 14.0 13.7 13.1 13.2 13.3 14.6 14.6 11.1 12.9 10.8 10.6 11.0 12.6 
Sun Nov 19 15:44:52 2017 H 34.0 P 13.850 D -2.8 10.1 10.0 10.1 10.2 10.1 9.9 10.0 10.0 11.3 11.1 11.0 10.9 11.2 11.0 10.9 11.0 13.4 11.4 11.1 12.2 13.2 9.6 9.7 12.4 11.9 14.7 14.8 14.6 2.1 3.5 14.4 10.1 10 25.5 14.0 13.5 14.2 14.0 13.7 13.1 13.2 13.2 14.5 14.6 10.9 12.8 10.9 10.7 10.9 12.3 
Sun Nov 19 15:49:52 2017 H 34.0 P 13.867 D -2.8 10.2 10.1 10.1 10.0 10.1 9.9 10.0 10.0 11.2 11.0 11.0 11.0 11.3 11.0 10.9 11.0 13.5 11.5 11.1 12.1 13.3 9.6 9.8 12.4 12.0 14.7 14.8 14.5 2.2 3.4 14.4 10.0 10 25.5 14.3 13.7 14.3 14.1 13.7 13.2 13.2 13.6 14.3 14.7 11.0 12.8 10.9 10.7 10.9 12.5 
Sun Nov 19 15:54:52 2017 H 34.0 P 13.850 D -2.8 10.1 10.0 10.1 10.0 10.0 9.9 10.0 10.0 11.2 11.0 10.9 10.9 11.2 11.1 10.9 10.9 13.3 11.4 11.1 12.1 13.1 9.6 9.7 12.3 11.9 14.6 14.7 14.5 2.2 3.4 14.4 10.1 10 25.5 14.1 13.6 14.3 14.1 13.7 13.1 13.2 13.3 14.4 14.6 11.0 12.8 10.7 10.8 10.9 12.5 
Sun Nov 19 15:59:52 2017 H 33.8 P 13.983 D -2.8 10.1 10.0 10.1 10.0 10.0 10.0 10.0 10.1 11.2 10.9 10.8 10.9 11.2 11.0 10.8 10.9 13.5 11.5 11.2 12.2 13.1 9.6 9.8 12.3 11.9 14.6 14.8 14.5 2.2 3.6 14.3 10.1 10 25.5 14.3 13.6 14.4 14.1 13.8 13.1 13.2 13.3 14.5 14.7 11.1 12.9 10.8 10.6 10.9 12.5 
Sun Nov 19 16:04:52 2017 H 33.8 P 14.000 D -2.8 10.1 10.0 10.0 9.9 9.9 9.9 9.9 10.0 11.2 10.9 11.0 10.8 11.2 11.0 10.8 10.8 13.5 11.7 11.1 12.0 13.3 9.6 9.7 12.5 11.8 14.6 14.9 14.6 1.6 2.8 14.4 9.8 10 25.3 14.3 13.7 14.4 14.1 13.8 13.2 13.3 13.5 14.4 14.7 11.1 12.9 10.8 10.8 10.9 12.3 
Sun Nov 19 16:09:52 2017 H 33.7 P 14.000 D -2.9 10.1 10.0 10.1 10.0 9.9 9.9 9.8 10.0 11.3 11.0 11.0 10.8 11.1 11.0 10.9 10.9 13.6 11.7 11.2 12.3 12.9 9.7 9.8 12.5 12.0 14.7 14.8 14.6 2.1 3.7 14.4 10.1 10 25.8 14.0 13.7 14.3 14.0 13.6 13.3 13.1 13.5 14.4 14.7 11.0 12.8 10.7 10.5 10.9 12.5 
Sun Nov 19 16:14:52 2017 H 33.6 P 14.000 D -2.9 10.2 10.1 10.1 10.2 10.0 9.8 9.9 10.0 11.3 11.1 11.0 10.9 11.3 11.1 11.0 11.0 13.6 11.5 11.2 11.9 13.2 9.7 9.9 12.5 12.1 14.7 14.9 14.7 2.1 3.6 14.4 10.0 10 25.5 14.3 13.8 14.5 14.2 13.8 13.3 13.3 13.6 14.5 14.8 10.8 12.8 10.7 10.8 10.9 12.6 
Sun Nov 19 16:19:52 2017 H 33.6 P 14.000 D -2.9 10.2 10.1 10.1 10.1 10.0 9.9 10.0 10.0 11.2 11.0 11.0 10.9 11.3 11.0 10.9 11.0 13.5 11.5 11.1 12.4 12.7 9.7 9.7 12.3 12.0 14.7 14.8 14.6 1.9 3.2 14.4 9.9 10 25.8 14.4 13.8 14.5 14.3 13.9 13.4 13.3 13.5 14.5 14.8 11.1 12.8 10.8 10.8 11.1 12.4 
Sun Nov 19 16:24:52 2017 H 33.6 P 13.950 D -2.9 10.2 10.0 10.1 10.1 10.0 9.8 9.9 9.9 11.3 11.0 11.0 10.9 11.2 11.1 10.9 11.0 13.6 11.5 11.2 12.2 13.1 9.7 9.8 12.4 11.9 14.8 14.8 14.7 2.0 3.2 14.5 9.9 10 25.5 14.5 13.9 14.5 14.3 14.1 13.3 13.4 13.6 14.5 14.8 11.2 12.9 10.8 10.7 11.0 12.4 
Sun Nov 19 16:29:52 2017 H 33.5 P 13.983 D -2.9 10.2 10.1 10.1 10.1 10.1 9.8 9.9 10.0 11.4 11.1 11.1 10.9 11.3 11.1 10.9 11.0 13.7 11.7 11.2 12.4 13.1 9.7 9.8 12.4 12.1 14.6 14.8 14.7 2.0 3.4 14.3 9.9 10 25.5 14.4 13.8 14.6 14.2 13.9 13.4 13.4 13.5 14.6 14.9 11.3 13.0 10.9 10.8 11.0 12.5 
Sun Nov 19 16:34:52 2017 H 33.4 P 13.967 D -2.9 10.1 10.0 10.1 10.0 10.0 9.8 9.8 10.0 11.2 11.0 10.9 10.9 11.2 11.1 10.9 11.0 13.6 11.7 11.2 12.3 13.3 9.7 9.8 12.5 11.9 14.8 14.9 14.7 2.1 3.4 14.5 10.0 10 25.5 14.4 13.9 14.6 14.2 14.1 13.4 13.3 13.6 14.6 15.0 11.2 13.1 11.0 10.7 11.1 12.6 
Sun Nov 19 16:39:52 2017 H 33.4 P 13.950 D -2.9 10.1 10.0 10.1 10.1 10.0 9.9 9.9 10.0 11.2 11.0 11.0 10.9 11.3 11.2 11.0 11.0 13.6 11.7 11.2 12.3 13.3 9.7 9.9 12.6 11.9 14.7 14.9 14.7 2.2 3.5 14.4 10.1 10 25.8 14.5 13.8 14.6 14.2 13.9 13.4 13.3 13.5 14.6 14.9 11.1 13.0 11.0 10.8 10.9 12.6 
Sun Nov 19 16:44:52 2017 H 33.4 P 13.950 D -2.9 10.3 10.0 10.1 10.1 10.1 9.9 9.9 10.0 11.3 11.1 11.2 11.0 11.4 11.2 11.0 11.2 13.6 11.8 11.3 12.1 13.2 9.7 9.8 12.4 12.0 14.7 14.8 14.5 2.0 3.5 14.4 10.1 10 25.5 14.2 13.8 14.5 14.2 14.0 13.4 13.3 13.5 14.5 14.8 11.2 12.9 10.9 10.7 10.9 12.6 
Sun Nov 19 16:49:52 2017 H 33.4 P 13.950 D -3.0 10.2 10.1 10.2 10.1 10.1 9.9 9.9 10.1 11.5 11.2 11.1 11.0 11.4 11.2 11.0 11.1 13.7 11.8 11.3 12.3 13.0 9.7 9.9 12.5 12.1 14.7 14.8 14.6 2.1 3.5 14.4 10.1 10 25.8 14.5 13.8 14.5 14.2 13.9 13.5 13.2 13.6 14.6 14.9 11.3 13.0 10.9 10.8 10.9 12.6 
Sun Nov 19 16:54:52 2017 H 33.4 P 13.950 D -3.0 10.3 10.1 10.2 10.2 10.0 9.9 9.9 10.1 11.5 11.1 11.2 11.0 11.4 11.1 11.0 11.2 13.7 11.5 11.2 12.1 13.2 9.7 9.9 12.5 12.0 14.6 14.7 14.5 2.2 3.5 14.4 10.2 10 25.5 14.3 13.6 14.5 14.2 13.8 13.2 13.2 13.3 14.4 14.8 11.1 12.8 10.7 10.8 10.8 12.4 
Sun Nov 19 16:59:52 2017 H 33.3 P 13.850 D -3.1 10.2 10.1 10.1 10.2 10.1 9.9 10.0 10.0 11.4 11.0 11.0 10.9 11.3 11.1 11.0 11.0 13.7 11.6 11.2 12.2 12.9 9.8 9.9 12.5 12.0 14.7 14.7 14.5 2.2 3.5 14.4 9.9 10 25.8 14.4 14.0 14.6 14.3 14.0 13.5 13.3 13.4 14.6 14.9 11.2 12.9 10.8 10.8 11.1 12.6 
Sun Nov 19 17:04:52 2017 H 33.2 P 13.950 D -3.1 10.2 10.2 10.2 10.1 10.1 9.8 9.9 9.9 11.3 11.1 11.1 11.0 11.3 11.1 10.9 11.1 13.8 11.8 11.3 12.1 13.0 9.8 9.9 12.6 12.0 14.5 14.8 14.7 2.3 3.7 14.4 10.2 10 25.8 14.4 14.0 14.6 14.3 14.0 13.4 13.4 13.7 14.5 14.9 11.2 12.9 10.8 10.8 11.0 12.6 
Sun Nov 19 17:09:52 2017 H 33.1 P 13.900 D -3.2 10.1 10.2 10.1 10.0 9.9 9.9 9.9 10.0 11.4 11.1 11.0 11.0 11.3 11.1 10.9 11.0 13.9 11.6 11.3 12.2 13.1 9.8 9.9 12.5 11.8 14.7 14.8 14.6 2.4 3.7 14.3 10.2 10 25.5 14.6 14.1 14.8 14.4 14.0 13.6 13.4 13.7 14.7 15.0 11.2 13.1 10.9 10.9 11.0 12.5 
Sun Nov 19 17:14:52 2017 H 33.0 P 13.850 D -3.3 10.2 10.1 10.1 10.0 10.1 9.8 9.9 10.1 11.4 11.1 11.0 11.0 11.4 11.2 11.0 11.1 13.7 11.4 11.2 12.3 12.9 9.8 9.8 12.5 11.9 14.5 14.7 14.6 1.9 3.0 14.2 9.8 10 25.8 14.6 14.0 14.7 14.4 14.0 13.5 13.3 13.7 14.7 14.9 11.2 13.0 10.9 10.7 11.0 12.5 
Sun Nov 19 17:19:52 2017 H 32.9 P 13.850 D -3.3 10.2 10.1 10.1 10.1 10.1 9.9 9.9 10.0 11.3 11.0 11.1 11.0 11.3 11.1 10.9 11.1 13.8 11.8 11.2 12.0 12.9 9.8 10.0 12.5 12.0 14.5 14.6 14.5 2.2 3.6 14.1 10.1 10 25.8 14.5 14.0 14.7 14.3 14.0 13.5 13.4 13.6 14.6 14.9 11.1 13.0 10.9 10.7 11.0 12.5 
Sun Nov 19 17:24:52 2017 H 32.9 P 13.750 D -3.4 10.2 10.1 10.1 10.2 10.1 9.9 9.9 10.0 11.3 11.0 11.0 11.0 11.3 11.1 11.0 11.0 13.7 11.5 11.2 12.2 12.9 9.8 9.8 12.5 11.8 14.3 14.6 14.5 2.2 3.6 14.1 10.0 10 25.5 14.6 13.9 14.8 14.3 13.9 13.4 13.3 13.6 14.6 14.9 11.3 13.0 10.9 10.8 10.9 12.5 
Sun Nov 19 17:29:52 2017 H 32.8 P 13.750 D -3.5 10.2 10.0 10.1 10.1 10.1 10.0 10.0 10.0 11.3 11.0 10.9 10.9 11.2 11.0 11.0 10.9 13.8 11.6 11.2 11.9 12.8 9.9 9.8 12.4 11.6 14.2 14.4 14.4 2.1 3.4 14.1 9.9 10 25.5 14.4 13.9 14.6 14.3 13.9 13.5 13.3 13.5 14.6 14.9 11.2 12.9 10.9 10.7 11.0 12.7 
Sun Nov 19 17:34:52 2017 H 33.1 P 13.450 D -3.6 10.1 9.9 10.1 10.1 10.1 9.8 9.9 10.1 11.0 10.8 10.7 10.6 10.9 10.8 10.8 10.7 13.8 25.6 11.1 12.4 11.9 9.4 9.6 12.0 10.0 14.2 14.4 14.5 2.2 3.3 13.1 9.5 10 25.5 14.3 14.1 14.7 14.4 13.9 13.4 13.3 13.6 14.6 14.9 11.2 13.0 10.8 10.9 11.0 12.5 
Sun Nov 19 17:39:52 2017 H 33.7 P 12.400 D -4.7 10.0 10.1 9.9 10.1 10.1 10.0 10.0 10.1 10.8 10.4 10.5 10.7 10.9 10.8 10.7 10.7 13.4 10.9 11.1 10.3 10.3 9.3 9.2 11.9 10.3 12.2 12.2 12.3 2.2 3.1 12.4 9.4 10 25.8 13.5 13.8 14.3 14.2 13.6 13.2 13.2 13.4 14.5 14.6 11.4 13.0 11.0 11.0 11.0 12.6 
Sun Nov 19 17:44:52 2017 H 33.9 P 11.700 D -5.8 9.9 10.0 10.1 10.1 10.0 10.0 10.0 10.1 10.7 10.4 10.5 10.6 10.9 10.9 10.7 10.7 13.4 10.9 11.3 11.0 10.5 9.5 9.2 11.3 10.4 11.8 11.9 12.0 1.4 2.1 12.1 9.4 10 0.0 13.4 13.7 14.0 14.0 13.2 13.0 12.9 13.2 14.1 14.2 11.2 12.8 10.8 10.8 11.1 12.5 
Sun Nov 19 17:49:52 2017 H 33.2 P 11.550 D -6.4 10.1 10.1 10.1 10.3 10.2 10.0 10.1 10.3 11.0 10.6 10.8 10.9 11.0 10.9 10.8 10.9 13.1 11.2 11.1 11.3 10.9 9.7 9.7 11.2 11.1 12.0 11.8 11.9 2.7 3.7 13.3 10.8 10 0.0 13.5 13.6 13.9 13.8 13.1 12.9 12.7 13.2 14.1 14.0 11.2 12.8 10.8 10.9 11.1 12.4 
Sun Nov 19 17:54:52 2017 H 32.6 P 11.200 D -6.7 10.2 10.0 10.1 10.2 10.2 9.9 10.1 10.2 11.0 10.7 10.9 11.0 11.1 10.9 11.0 10.9 12.9 11.2 11.2 11.1 10.7 9.8 9.9 11.0 11.3 11.9 11.6 11.7 4.3 4.6 13.4 11.2 10 0.0 13.4 13.4 13.5 13.6 13.0 12.8 12.5 13.1 13.8 14.0 11.4 12.7 11.0 10.7 11.2 12.4 
Sun Nov 19 17:59:52 2017 H 32.0 P 11.100 D -6.9 10.1 10.1 10.2 10.3 10.2 10.1 10.2 10.3 11.1 10.7 10.9 11.0 11.2 11.1 11.1 11.0 12.7 11.2 11.1 11.0 10.7 9.7 10.0 10.9 11.4 11.7 11.6 11.6 5.5 5.5 13.3 11.6 10 0.0 13.1 13.2 13.4 13.5 12.8 12.6 12.5 12.8 13.5 13.6 11.2 12.6 10.8 10.7 11.1 12.3 
Sun Nov 19 18:04:52 2017 H 31.9 P 11.000 D -6.8 10.1 10.0 10.1 10.3 10.3 10.1 10.2 10.3 11.0 10.9 11.0 11.1 11.2 11.1 11.0 11.1 12.6 11.1 11.1 10.9 10.6 9.9 10.0 10.9 11.2 11.5 11.5 11.5 6.4 6.2 13.3 11.8 10 0.0 12.9 13.2 13.2 13.1 12.6 12.5 12.2 12.8 13.4 13.4 11.2 12.5 10.9 10.9 11.0 12.3 
Sun Nov 19 18:09:52 2017 H 31.7 P 10.983 D -7.0 10.1 10.1 10.1 10.3 10.1 10.1 10.1 10.4 10.8 10.5 10.7 10.8 11.0 10.9 10.8 10.9 12.4 10.8 11.0 10.9 10.4 9.8 10.0 10.7 11.2 11.4 11.5 11.7 7.0 6.7 13.3 11.8 10 0.0 12.9 13.1 13.3 13.4 12.6 12.5 12.3 12.8 13.4 13.5 11.1 12.6 10.9 10.9 11.1 12.4 
Sun Nov 19 18:14:52 2017 H 31.6 P 11.050 D -7.0 10.1 10.1 10.1 10.4 10.2 10.1 10.2 10.4 10.8 10.7 10.7 10.8 11.0 11.0 11.0 11.0 12.4 10.7 11.0 10.9 10.6 9.8 10.0 10.6 11.1 11.6 11.6 12.0 7.4 7.3 13.7 12.2 10 0.0 13.1 12.7 13.3 13.4 12.7 12.5 12.2 12.7 13.5 13.3 11.3 12.4 11.0 11.0 11.2 12.4 
Sun Nov 19 18:19:52 2017 H 31.5 P 11.100 D -6.9 10.1 10.1 10.3 10.4 10.3 10.1 10.1 10.3 10.7 10.7 10.6 10.8 11.1 10.8 10.8 10.9 12.2 10.7 11.0 10.8 10.7 9.9 10.1 10.3 11.2 11.5 11.5 12.1 7.9 7.8 13.7 12.3 10 0.0 12.9 12.8 13.1 13.3 12.7 12.5 12.1 12.7 13.1 13.2 11.3 12.4 11.0 11.1 11.2 12.4 
Sun Nov 19 18:24:52 2017 H 31.6 P 11.050 D -6.7 10.2 10.2 10.3 10.3 10.4 10.2 10.2 10.3 10.7 10.5 10.8 10.9 11.1 10.9 10.8 11.0 12.0 10.7 11.0 10.8 10.6 9.9 10.2 10.3 11.2 11.5 11.5 11.8 8.3 8.3 13.6 12.4 10 0.0 13.1 12.5 13.1 13.2 12.5 12.5 12.1 12.7 13.3 13.2 11.4 12.3 11.0 11.1 11.2 12.4 
Sun Nov 19 18:29:52 2017 H 31.5 P 11.100 D -6.7 10.2 10.0 10.2 10.4 10.3 10.1 10.2 10.3 10.9 10.7 10.7 10.9 11.0 11.0 10.9 11.1 11.9 10.7 10.7 10.5 10.6 9.8 10.1 10.3 11.1 11.4 11.3 11.8 8.6 8.6 13.6 12.4 10 0.0 12.9 12.6 13.0 13.1 12.5 12.3 12.1 12.5 12.8 12.9 11.3 12.2 10.9 11.0 11.1 12.3 
Sun Nov 19 18:34:52 2017 H 31.5 P 11.050 D -6.6 10.2 10.2 10.2 10.2 10.2 10.1 10.1 10.3 10.8 10.7 10.6 10.8 11.0 11.0 11.0 11.0 11.9 10.7 10.8 10.7 10.5 9.9 10.1 10.2 11.2 11.4 11.4 11.7 9.1 9.0 13.7 12.5 10 0.0 12.9 12.5 13.0 13.1 12.4 12.3 12.1 12.6 12.9 12.9 11.1 12.2 11.0 11.0 11.2 12.2 
Sun Nov 19 18:39:52 2017 H 31.6 P 10.967 D -6.6 10.1 10.0 10.2 10.3 10.4 10.1 10.1 10.3 10.6 10.6 10.5 10.8 10.9 10.9 10.8 11.0 11.8 10.7 10.8 10.4 10.4 9.8 10.2 10.3 11.1 11.3 11.2 11.8 9.4 9.3 13.6 12.5 10 0.0 12.9 12.5 12.9 13.0 12.4 12.1 12.0 12.4 13.0 12.9 11.4 12.3 11.1 11.0 11.3 12.3 
Sun Nov 19 18:44:52 2017 H 31.7 P 10.850 D -6.6 10.2 10.1 10.3 10.4 10.3 10.2 10.1 10.3 10.8 10.7 10.7 10.7 11.1 10.9 11.0 11.0 11.8 10.7 10.9 10.3 10.5 9.8 10.1 10.1 11.1 11.3 11.3 11.8 9.6 9.6 13.7 12.6 10 0.0 12.5 12.3 12.6 12.9 12.2 11.9 12.0 12.4 12.7 12.6 11.3 12.1 11.0 10.9 11.1 12.2 
Sun Nov 19 18:49:52 2017 H 31.7 P 10.900 D -6.5 10.3 10.1 10.3 10.4 10.3 10.3 10.2 10.4 10.8 10.8 10.7 10.9 11.0 10.9 10.8 10.9 11.6 10.5 10.8 10.4 10.3 9.9 10.1 10.0 11.3 11.4 11.3 11.7 10.0 10.0 13.6 12.7 10 0.0 12.4 12.2 12.5 12.7 12.1 11.8 11.9 12.2 12.7 12.5 11.3 12.0 10.9 10.9 11.1 12.1 
Sun Nov 19 18:54:52 2017 H 31.8 P 10.900 D -6.5 10.1 10.2 10.2 10.4 10.3 10.2 10.2 10.4 10.7 10.6 10.6 10.7 11.0 10.9 10.8 11.0 11.7 10.5 10.9 10.4 10.3 9.8 10.2 10.0 11.1 11.3 11.1 11.6 10.2 10.1 13.6 12.6 10 0.0 12.4 12.0 12.5 12.7 12.1 11.8 11.9 12.2 12.6 12.5 11.2 11.9 11.1 10.7 11.1 12.0 
Sun Nov 19 18:59:53 2017 H 31.9 P 10.917 D -6.4 10.2 10.2 10.3 10.3 10.4 10.1 10.2 10.4 10.7 10.7 10.5 10.9 11.0 10.9 10.9 10.9 11.6 10.6 10.8 10.5 10.5 10.0 10.1 10.0 11.1 11.3 11.3 11.8 10.4 10.5 13.8 12.8 10 0.0 12.4 11.9 12.5 12.6 12.0 12.0 11.8 12.0 12.5 12.4 11.4 11.9 11.1 10.9 11.1 12.2 
Sun Nov 19 19:04:53 2017 H 31.9 P 11.000 D -6.2 10.3 10.2 10.3 10.3 10.3 10.2 10.2 10.4 10.8 10.8 10.6 10.8 11.1 10.9 10.9 10.9 11.5 10.7 10.7 10.4 10.3 10.0 10.2 10.1 11.2 11.2 11.0 11.5 10.5 10.5 13.6 12.7 10 0.0 12.3 11.9 12.5 12.7 12.1 11.9 11.9 12.1 12.4 12.3 11.3 11.9 11.0 11.0 11.1 12.0 
Sun Nov 19 19:09:53 2017 H 31.6 P 11.250 D -6.0 10.3 10.2 10.3 10.4 10.4 10.2 10.1 10.3 10.9 10.9 10.8 11.0 11.0 11.0 10.9 11.0 11.5 10.7 10.8 10.9 10.5 10.0 10.2 10.1 11.5 11.6 11.7 11.8 10.8 10.8 13.8 12.8 10 0.0 12.4 11.8 12.4 12.5 11.9 11.9 11.7 12.1 12.4 12.2 11.3 11.9 11.0 10.8 10.8 12.0 
Sun Nov 19 19:14:53 2017 H 31.5 P 11.350 D -5.9 10.3 10.3 10.4 10.5 10.4 10.3 10.3 10.4 10.8 10.8 10.7 10.9 11.1 11.0 11.1 11.1 11.4 10.8 10.9 11.0 10.5 10.0 10.1 10.1 11.5 11.6 11.6 11.8 11.0 10.9 13.7 12.9 10 0.0 12.3 11.8 12.4 12.5 11.9 11.7 11.9 12.1 12.5 12.3 11.4 12.0 11.1 11.1 11.2 12.0 
Sun Nov 19 19:19:53 2017 H 31.5 P 11.350 D -5.8 10.2 10.3 10.4 10.5 10.4 10.1 10.2 10.4 10.8 10.9 10.7 11.0 11.1 11.1 11.0 11.1 11.3 10.7 10.8 10.7 10.6 10.1 10.3 10.1 11.6 11.5 11.5 11.9 11.2 11.2 13.7 12.9 10 0.0 12.4 11.7 12.4 12.5 11.9 11.8 11.7 12.0 12.3 12.3 11.5 12.0 11.2 11.0 11.3 12.1 
Sun Nov 19 19:24:53 2017 H 31.6 P 11.300 D -5.7 10.3 10.3 10.3 10.5 10.4 10.3 10.2 10.4 10.8 10.8 10.7 11.0 11.1 11.1 11.0 11.1 11.2 10.6 10.8 10.3 10.3 10.0 10.1 10.0 11.3 11.4 11.4 11.8 11.3 11.4 13.6 13.0 10 0.0 12.3 11.7 12.3 12.5 11.9 11.7 11.8 11.9 12.3 12.1 11.4 11.8 11.1 11.0 11.2 12.0 
Sun Nov 19 19:29:53 2017 H 31.8 P 11.250 D -5.6 10.3 10.4 10.4 10.5 10.5 10.3 10.3 10.4 10.9 10.9 10.7 11.0 11.1 11.0 10.9 11.0 11.1 10.5 10.7 10.2 10.3 10.1 10.2 9.9 11.3 11.4 11.3 11.7 11.5 11.5 13.6 13.1 10 0.0 12.1 11.6 12.2 12.4 11.8 11.5 11.6 12.0 12.2 12.0 11.3 11.8 11.0 11.0 11.2 12.0 
Sun Nov 19 19:34:53 2017 H 31.8 P 11.300 D -5.6 10.4 10.4 10.4 10.5 10.4 10.4 10.3 10.4 10.8 10.9 10.7 10.9 11.0 11.0 11.0 11.0 11.1 10.5 10.7 10.2 10.3 9.9 10.2 9.9 11.3 11.4 11.3 11.7 11.7 11.7 13.8 13.1 10 0.0 12.1 11.4 12.2 12.3 11.7 11.7 11.6 12.0 12.2 12.0 11.4 11.9 11.0 10.9 11.1 11.9 
Sun Nov 19 19:39:53 2017 H 31.9 P 11.250 D -5.6 10.4 10.3 10.4 10.4 10.4 10.3 10.2 10.5 10.7 10.8 10.7 10.8 11.1 11.0 11.0 10.9 11.2 10.7 10.8 10.3 10.3 10.1 10.3 9.8 11.4 11.5 11.3 11.8 11.8 11.7 13.8 13.1 10 0.0 12.1 11.3 12.2 12.4 11.7 11.6 11.5 11.8 12.1 11.9 11.4 11.9 11.1 11.1 11.2 12.1 
Sun Nov 19 19:44:53 2017 H 31.9 P 11.250 D -5.6 10.3 10.4 10.5 10.5 10.5 10.3 10.1 10.4 10.8 10.9 10.7 10.8 11.0 11.0 10.9 10.9 11.0 10.5 10.8 10.3 10.2 10.1 10.2 9.8 11.2 11.4 11.3 11.7 11.8 11.9 13.8 13.1 10 0.0 12.3 11.4 12.1 12.4 11.7 11.6 11.7 12.0 12.1 11.9 11.5 11.9 11.2 11.0 11.3 12.1 
Sun Nov 19 19:49:53 2017 H 32.1 P 11.200 D -5.6 10.3 10.3 10.4 10.5 10.5 10.2 10.2 10.4 10.8 10.8 10.7 10.9 11.1 11.0 11.0 10.9 11.1 10.6 10.7 10.2 10.3 10.1 10.2 9.8 11.3 11.3 11.4 11.8 11.9 12.0 13.7 13.2 10 0.0 12.1 11.3 12.1 12.3 11.5 11.6 11.5 11.8 12.0 11.7 11.4 11.8 11.1 11.1 11.3 12.1 
Sun Nov 19 19:54:53 2017 H 32.0 P 11.300 D -5.6 10.3 10.4 10.4 10.4 10.4 10.2 10.2 10.4 10.8 10.8 10.6 10.8 11.0 11.0 10.9 10.9 10.9 10.5 10.6 10.0 10.2 10.0 10.1 9.6 11.2 11.3 11.3 11.8 12.0 12.0 13.7 13.1 10 0.0 12.1 11.2 12.0 12.2 11.6 11.4 11.5 11.6 11.9 11.7 11.4 11.9 11.1 11.1 11.2 12.0 
Sun Nov 19 19:59:53 2017 H 32.1 P 11.250 D -5.5 10.3 10.3 10.4 10.4 10.5 10.2 10.2 10.4 10.8 10.8 10.7 10.8 11.1 11.0 10.9 11.0 10.9 10.6 10.8 10.0 10.2 10.1 10.2 9.7 11.2 11.2 11.1 11.7 12.1 12.1 13.7 13.2 10 0.0 12.0 11.2 12.0 12.3 11.6 11.3 11.6 11.8 11.9 11.6 11.5 11.9 11.2 11.1 11.3 12.0 
Sun Nov 19 20:04:53 2017 H 32.2 P 11.250 D -5.5 10.4 10.4 10.4 10.5 10.5 10.3 10.2 10.4 10.8 10.8 10.8 10.9 11.0 11.0 10.9 11.0 10.8 10.6 10.7 10.3 10.3 10.1 10.2 9.9 11.4 11.4 11.4 11.7 12.2 12.2 13.6 13.3 10 0.0 11.8 11.1 11.9 12.1 11.5 11.4 11.4 11.7 11.9 11.6 11.4 11.8 11.1 11.0 11.3 12.0 
Sun Nov 19 20:09:53 2017 H 32.2 P 11.217 D -5.5 10.5 10.4 10.5 10.4 10.5 10.4 10.2 10.4 10.9 10.9 10.7 10.9 11.1 11.0 10.9 11.0 10.8 10.4 10.7 10.4 10.1 10.1 10.2 9.7 11.3 11.2 11.2 11.7 12.3 12.2 13.7 13.4 10 0.0 12.0 11.1 12.0 12.1 11.4 11.5 11.4 11.7 11.9 11.5 11.4 11.8 11.1 11.1 11.3 12.1 
Sun Nov 19 20:14:53 2017 H 32.2 P 11.300 D -5.5 10.4 10.4 10.3 10.5 10.6 10.4 10.3 10.4 10.9 10.9 10.7 10.9 11.1 11.0 11.0 11.0 10.8 10.3 10.6 10.0 10.2 10.1 10.2 9.6 11.1 11.3 11.1 11.6 12.4 12.2 13.6 13.1 10 0.0 11.8 11.1 11.8 11.9 11.4 11.6 11.4 11.7 11.7 11.4 11.4 11.9 11.2 11.2 11.3 12.0 
Sun Nov 19 20:19:53 2017 H 32.4 P 11.200 D -5.4 10.5 10.4 10.4 10.4 10.5 10.3 10.2 10.5 10.8 10.9 10.8 10.9 11.1 11.1 10.9 10.9 10.8 10.5 10.6 10.2 10.4 10.1 10.2 9.8 11.3 11.3 11.3 11.6 12.5 12.4 13.7 13.3 10 0.0 11.9 11.1 11.9 12.0 11.3 11.4 11.4 11.8 11.7 11.4 11.4 11.9 11.3 10.9 11.3 11.9 
Sun Nov 19 20:24:53 2017 H 32.5 P 11.250 D -5.4 10.4 10.4 10.4 10.5 10.5 10.3 10.3 10.6 10.8 10.9 10.7 10.9 11.2 11.0 11.0 11.0 10.7 10.4 10.7 10.1 10.2 10.2 10.2 9.6 11.1 11.2 11.2 11.5 12.4 12.4 13.6 13.2 10 0.0 11.8 11.0 11.8 11.9 11.3 11.5 11.4 11.6 11.6 11.4 11.6 11.9 11.2 11.2 11.4 12.0 
Sun Nov 19 20:29:53 2017 H 32.7 P 11.150 D -5.3 10.4 10.5 10.4 10.5 10.6 10.3 10.2 10.4 10.7 10.7 10.6 10.8 11.0 10.9 10.9 10.9 10.7 10.3 10.6 10.1 10.2 10.1 10.1 9.6 11.2 11.1 11.1 11.6 12.6 12.5 13.7 13.3 10 0.0 11.8 10.9 11.8 12.0 11.3 11.6 11.3 11.6 11.6 11.4 11.4 11.9 11.2 11.3 11.3 11.9 
Sun Nov 19 20:34:53 2017 H 32.9 P 11.100 D -5.2 10.4 10.3 10.4 10.4 10.5 10.3 10.3 10.4 10.7 10.7 10.7 10.8 11.0 11.0 10.9 10.8 10.6 10.3 10.6 10.1 10.0 10.2 10.2 9.5 11.0 11.0 11.0 11.6 12.6 12.5 13.5 13.2 10 0.0 11.6 10.8 11.6 11.8 11.2 11.3 11.2 11.8 11.6 11.3 11.5 11.8 11.2 11.2 11.4 11.9 
Sun Nov 19 20:39:53 2017 H 33.1 P 11.050 D -5.2 10.4 10.4 10.4 10.5 10.6 10.2 10.3 10.4 10.7 10.8 10.7 10.8 11.0 11.0 10.9 11.0 10.6 10.3 10.7 10.4 10.3 10.1 10.2 9.6 11.2 11.4 11.4 11.6 12.6 12.6 13.6 13.3 10 0.0 11.6 10.8 11.7 11.8 11.2 11.5 11.2 11.5 11.6 11.3 11.4 11.8 11.2 11.2 11.3 12.0 
Sun Nov 19 20:44:53 2017 H 33.0 P 11.133 D -5.1 10.5 10.4 10.5 10.6 10.6 10.4 10.3 10.5 10.7 10.9 10.9 11.0 11.1 11.1 11.0 11.1 10.5 10.4 10.5 10.5 10.2 10.1 10.1 9.7 11.2 11.4 11.4 11.5 12.7 12.7 13.6 13.4 10 0.0 11.6 10.8 11.6 11.8 11.1 11.3 11.4 11.4 11.6 11.2 11.5 11.8 11.3 11.1 11.4 12.0 

                                Probe  Dew                                                                                                                                                                                                         Set   Flow 
    Date   Time             Humid    Amb   Point    NIB   EIB   SIB   WIB   NOB   EOB   SOB   WOB   NIT   EIT   SIT   WIT   NOT   EOT   SOT   WOT   STS   MHS   MHW   COS   COW   CIB   CIM   CIT   DBS   TSB   TSM   TST   HXI   HXO   HXA   HXD Point Rate   NTT   ETT   WTT   STT   NTB   ETB   WTB   STB   TRS   TRW   CSI   CSO   PCI   PCO   CCI   CCO
Explanation of codes.
These data are provided for the convenience of observers at Kitt Peak. The instruments are not calibrated and the values should be considered as indicative only.

dougw@noao.edu